Time;durP1;ratioP1;P1;durP2;ratioP2;P2;SDS_P1;SDS_P2;PMS_P1;PMS_P2;Temp;Humidity;BMP_temperature;BMP_pressure;BME280_temperature;BME280_humidity;BME280_pressure;Samples;Min_cycle;Max_cycle;Signal;HPM_P1;HPM_P2
2023/01/07 00:00:38;;;;;;;;;;;22.00;38.70;;;;;;475615;249;1735;-44
2023/01/07 00:02:39;;;;;;;;;;;22.00;38.90;;;;;;475640;249;2112;-45
2023/01/07 00:04:41;;;;;;;;;;;21.90;39.00;;;;;;475615;249;1759;-44
2023/01/07 00:06:42;;;;;;;;;;;21.90;39.00;;;;;;475546;249;1744;-45
2023/01/07 00:08:43;;;;;;;;;;;21.90;39.10;;;;;;475618;249;2208;-45
2023/01/07 00:10:45;;;;;;;;;;;21.90;39.20;;;;;;475662;249;2186;-45
2023/01/07 00:12:46;;;;;;;;;;;21.80;39.20;;;;;;475627;249;2503;-44
2023/01/07 00:14:47;;;;;;;;;;;21.80;39.30;;;;;;475709;249;1737;-44
2023/01/07 00:16:48;;;;;;;;;;;21.80;39.30;;;;;;475659;249;1902;-45
2023/01/07 00:18:50;;;;;;;;;;;21.80;39.30;;;;;;475662;249;1870;-44
2023/01/07 00:20:51;;;;;;;;;;;21.80;39.30;;;;;;475595;249;1699;-44
2023/01/07 00:22:53;;;;;;;;;;;21.80;39.40;;;;;;475581;249;1663;-44
2023/01/07 00:24:54;;;;;;;;;;;21.70;39.40;;;;;;475613;249;1735;-44
2023/01/07 00:26:55;;;;;;;;;;;21.70;39.40;;;;;;475608;249;1879;-45
2023/01/07 00:28:56;;;;;;;;;;;21.70;39.30;;;;;;475784;249;1692;-44
2023/01/07 00:30:58;;;;;;;;;;;21.70;39.40;;;;;;475714;249;2203;-45
2023/01/07 00:33:03;;;;;;;;;;;21.70;39.50;;;;;;475638;249;1878;-44
2023/01/07 00:35:00;;;;;;;;;;;21.70;39.50;;;;;;475355;250;1893;-44
2023/01/07 00:37:48;;;;;;;;;;;21.60;39.60;;;;;;475721;249;1888;-44
2023/01/07 00:39:19;;;;;;;;;;;21.60;39.60;;;;;;474167;250;1952;-45
2023/01/07 00:41:20;;;;;;;;;;;21.60;39.60;;;;;;475589;249;1713;-44
2023/01/07 00:43:21;;;;;;;;;;;21.60;39.70;;;;;;475602;249;2489;-45
2023/01/07 00:45:23;;;;;;;;;;;21.50;39.80;;;;;;475641;249;2162;-44
2023/01/07 00:47:24;;;;;;;;;;;21.50;39.90;;;;;;475629;249;1867;-44
2023/01/07 00:49:25;;;;;;;;;;;21.50;39.90;;;;;;475582;249;2125;-45
2023/01/07 00:51:27;;;;;;;;;;;21.50;39.90;;;;;;475599;249;2168;-44
2023/01/07 00:53:29;;;;;;;;;;;21.50;39.90;;;;;;475555;249;1775;-45
2023/01/07 00:55:30;;;;;;;;;;;21.40;39.80;;;;;;475613;249;1712;-44
2023/01/07 00:57:31;;;;;;;;;;;21.40;39.90;;;;;;475599;249;2205;-44
2023/01/07 00:59:32;;;;;;;;;;;21.40;39.90;;;;;;475627;249;1799;-45
2023/01/07 01:01:34;;;;;;;;;;;21.40;39.90;;;;;;475633;249;2434;-45
2023/01/07 01:03:35;;;;;;;;;;;21.40;40.00;;;;;;475643;249;1712;-44
2023/01/07 01:05:36;;;;;;;;;;;21.40;39.90;;;;;;475573;249;2091;-44
2023/01/07 01:07:38;;;;;;;;;;;21.40;40.00;;;;;;475629;249;1978;-45
2023/01/07 01:09:39;;;;;;;;;;;21.30;40.00;;;;;;475593;249;1872;-44
2023/01/07 01:11:41;;;;;;;;;;;21.30;40.10;;;;;;475556;249;2164;-44
2023/01/07 01:13:42;;;;;;;;;;;21.30;40.10;;;;;;475661;249;2014;-44
2023/01/07 01:15:44;;;;;;;;;;;21.30;40.00;;;;;;475596;249;1973;-44
2023/01/07 01:17:45;;;;;;;;;;;21.30;40.00;;;;;;475567;249;1985;-45
2023/01/07 01:19:46;;;;;;;;;;;21.30;40.00;;;;;;475592;249;1864;-45
2023/01/07 01:21:47;;;;;;;;;;;21.30;40.00;;;;;;475568;249;2281;-45
2023/01/07 01:23:49;;;;;;;;;;;21.30;40.00;;;;;;475583;249;1760;-45
2023/01/07 01:25:50;;;;;;;;;;;21.30;40.00;;;;;;475660;249;1973;-44
2023/01/07 01:27:52;;;;;;;;;;;21.30;40.10;;;;;;475609;249;2149;-44
2023/01/07 01:29:53;;;;;;;;;;;21.40;40.10;;;;;;475625;249;1806;-44
2023/01/07 01:31:54;;;;;;;;;;;21.40;40.10;;;;;;475587;249;2188;-44
2023/01/07 01:33:55;;;;;;;;;;;21.30;40.10;;;;;;475622;249;1635;-45
2023/01/07 01:35:57;;;;;;;;;;;21.30;40.20;;;;;;475574;249;1924;-44
2023/01/07 01:37:58;;;;;;;;;;;21.30;40.20;;;;;;475572;249;1710;-44
2023/01/07 01:40:02;;;;;;;;;;;21.30;40.20;;;;;;475576;249;1959;-44
2023/01/07 01:42:02;;;;;;;;;;;21.30;40.20;;;;;;475605;250;1835;-44
2023/01/07 01:44:03;;;;;;;;;;;21.30;40.20;;;;;;475693;249;2190;-44
2023/01/07 01:46:04;;;;;;;;;;;21.30;40.20;;;;;;475608;249;2475;-44
2023/01/07 01:48:06;;;;;;;;;;;21.30;40.20;;;;;;475662;249;2086;-44
2023/01/07 01:50:07;;;;;;;;;;;21.30;40.20;;;;;;475627;249;1718;-44
2023/01/07 01:52:08;;;;;;;;;;;21.20;40.10;;;;;;475591;249;2204;-44
2023/01/07 01:54:10;;;;;;;;;;;21.20;40.10;;;;;;475664;249;1765;-44
2023/01/07 01:56:11;;;;;;;;;;;21.20;40.20;;;;;;475617;249;2061;-45
2023/01/07 01:58:12;;;;;;;;;;;21.20;40.20;;;;;;475686;249;1708;-44
2023/01/07 02:00:15;;;;;;;;;;;21.20;40.20;;;;;;475633;249;3348;-44
2023/01/07 02:02:15;;;;;;;;;;;21.20;40.30;;;;;;475472;250;2118;-45
2023/01/07 02:04:16;;;;;;;;;;;21.20;40.20;;;;;;475556;249;1728;-44
2023/01/07 02:06:18;;;;;;;;;;;21.20;40.20;;;;;;475544;249;2072;-44
2023/01/07 02:08:21;;;;;;;;;;;21.20;40.30;;;;;;475566;249;2107;-45
2023/01/07 02:10:21;;;;;;;;;;;21.20;40.30;;;;;;475562;249;2173;-44
2023/01/07 02:12:23;;;;;;;;;;;21.20;40.30;;;;;;475574;249;2157;-44
2023/01/07 02:14:24;;;;;;;;;;;21.20;40.30;;;;;;475666;249;1585;-44
2023/01/07 02:16:25;;;;;;;;;;;21.20;40.30;;;;;;475652;249;1767;-45
2023/01/07 02:18:27;;;;;;;;;;;21.20;40.30;;;;;;475551;249;1735;-44
2023/01/07 02:20:28;;;;;;;;;;;21.20;40.20;;;;;;475564;249;2139;-44
2023/01/07 02:22:29;;;;;;;;;;;21.20;40.20;;;;;;475600;249;1859;-44
2023/01/07 02:24:31;;;;;;;;;;;21.20;40.20;;;;;;475662;249;3329;-44
2023/01/07 02:26:32;;;;;;;;;;;21.20;40.20;;;;;;475700;249;1935;-45
2023/01/07 02:28:33;;;;;;;;;;;21.20;40.20;;;;;;475564;249;1908;-44
2023/01/07 02:30:35;;;;;;;;;;;21.20;40.20;;;;;;475579;249;2115;-45
2023/01/07 02:32:36;;;;;;;;;;;21.20;40.10;;;;;;475635;249;2200;-45
2023/01/07 02:34:37;;;;;;;;;;;21.20;40.10;;;;;;475639;249;1971;-44
2023/01/07 02:36:38;;;;;;;;;;;21.20;40.10;;;;;;475559;249;1956;-44
2023/01/07 02:38:40;;;;;;;;;;;21.30;40.20;;;;;;475559;249;1687;-44
2023/01/07 02:40:41;;;;;;;;;;;21.20;40.10;;;;;;475716;249;1791;-44
2023/01/07 02:42:43;;;;;;;;;;;21.20;40.10;;;;;;475625;249;2450;-45
2023/01/07 02:44:44;;;;;;;;;;;21.20;40.10;;;;;;475598;249;2122;-44
2023/01/07 02:46:45;;;;;;;;;;;21.30;40.10;;;;;;475577;249;1845;-44
2023/01/07 02:48:47;;;;;;;;;;;21.20;40.10;;;;;;475578;249;2685;-44
2023/01/07 02:50:48;;;;;;;;;;;21.30;40.10;;;;;;475598;249;1882;-45
2023/01/07 02:52:49;;;;;;;;;;;21.30;40.00;;;;;;475596;249;2184;-44
2023/01/07 02:54:51;;;;;;;;;;;21.30;40.00;;;;;;475595;249;1807;-44
2023/01/07 02:56:52;;;;;;;;;;;21.30;40.00;;;;;;475680;249;1780;-45
2023/01/07 02:58:53;;;;;;;;;;;21.30;40.00;;;;;;475643;249;1763;-45
2023/01/07 03:00:54;;;;;;;;;;;21.30;40.00;;;;;;475712;249;2101;-44
2023/01/07 03:02:58;;;;;;;;;;;21.30;40.00;;;;;;475587;249;1813;-44
2023/01/07 03:04:57;;;;;;;;;;;21.30;40.00;;;;;;475527;250;2114;-44
2023/01/07 03:06:58;;;;;;;;;;;21.30;39.80;;;;;;475701;249;1962;-45
2023/01/07 03:09:00;;;;;;;;;;;21.30;39.80;;;;;;475570;249;2153;-45
2023/01/07 03:11:01;;;;;;;;;;;21.30;39.80;;;;;;475691;249;1741;-44
2023/01/07 03:13:02;;;;;;;;;;;21.40;39.80;;;;;;475615;249;2246;-45
2023/01/07 03:15:04;;;;;;;;;;;21.40;39.80;;;;;;475643;249;1950;-45
2023/01/07 03:17:05;;;;;;;;;;;21.40;39.80;;;;;;475599;249;2094;-45
2023/01/07 03:19:06;;;;;;;;;;;21.40;39.70;;;;;;475583;249;1979;-45
2023/01/07 03:21:08;;;;;;;;;;;21.40;39.80;;;;;;475668;249;2574;-44
2023/01/07 03:23:09;;;;;;;;;;;21.40;39.70;;;;;;475608;249;2102;-44
2023/01/07 03:25:10;;;;;;;;;;;21.40;39.80;;;;;;475640;249;1731;-44
2023/01/07 03:27:12;;;;;;;;;;;21.40;39.70;;;;;;475720;249;1662;-45
2023/01/07 03:29:13;;;;;;;;;;;21.40;39.70;;;;;;475852;249;1950;-44
2023/01/07 03:31:14;;;;;;;;;;;21.40;39.70;;;;;;475581;249;1735;-44
2023/01/07 03:33:16;;;;;;;;;;;21.40;39.80;;;;;;475545;249;2196;-44
2023/01/07 03:35:17;;;;;;;;;;;21.40;39.80;;;;;;475630;249;1746;-44
2023/01/07 03:37:19;;;;;;;;;;;21.40;39.80;;;;;;475683;249;1950;-44
2023/01/07 03:39:20;;;;;;;;;;;21.40;39.80;;;;;;475679;249;1718;-44
2023/01/07 03:43:41;;;;;;;;;;;21.40;39.70;;;;;;475764;250;2291;-44
2023/01/07 03:45:42;;;;;;;;;;;21.40;39.70;;;;;;475570;249;1752;-45
2023/01/07 03:47:43;;;;;;;;;;;21.40;39.70;;;;;;475630;249;1938;-44
2023/01/07 03:49:45;;;;;;;;;;;21.40;39.70;;;;;;475632;249;1708;-44
2023/01/07 03:51:48;;;;;;;;;;;21.40;39.70;;;;;;475562;249;1767;-44
2023/01/07 03:53:47;;;;;;;;;;;21.50;39.70;;;;;;475631;250;2222;-44
2023/01/07 03:55:49;;;;;;;;;;;21.40;39.70;;;;;;475632;249;1970;-44
2023/01/07 03:57:50;;;;;;;;;;;21.40;39.70;;;;;;475656;249;2442;-44
2023/01/07 03:59:51;;;;;;;;;;;21.40;39.60;;;;;;475630;249;2229;-45
2023/01/07 04:01:53;;;;;;;;;;;21.40;39.70;;;;;;475767;249;1818;-45
2023/01/07 04:03:54;;;;;;;;;;;21.50;39.70;;;;;;475665;249;1798;-44
2023/01/07 04:05:55;;;;;;;;;;;21.50;39.70;;;;;;475566;249;2105;-45
2023/01/07 04:07:57;;;;;;;;;;;21.40;39.60;;;;;;475681;249;1825;-44
2023/01/07 04:09:58;;;;;;;;;;;21.40;39.60;;;;;;475620;249;2527;-44
2023/01/07 04:12:00;;;;;;;;;;;21.40;39.60;;;;;;475637;249;1899;-45
2023/01/07 04:14:01;;;;;;;;;;;21.50;39.60;;;;;;475652;249;2180;-45
2023/01/07 04:16:02;;;;;;;;;;;21.50;39.60;;;;;;475653;249;1710;-44
2023/01/07 04:18:04;;;;;;;;;;;21.50;39.70;;;;;;475603;249;2034;-44
2023/01/07 04:20:06;;;;;;;;;;;21.50;39.60;;;;;;475599;249;1727;-44
2023/01/07 04:22:07;;;;;;;;;;;21.40;39.60;;;;;;475634;249;2171;-44
2023/01/07 04:24:08;;;;;;;;;;;21.40;39.70;;;;;;475634;249;1741;-44
2023/01/07 04:26:10;;;;;;;;;;;21.30;39.80;;;;;;475683;249;1861;-44
2023/01/07 04:28:11;;;;;;;;;;;21.30;39.80;;;;;;475628;249;1678;-44
2023/01/07 04:30:12;;;;;;;;;;;21.40;39.90;;;;;;475564;249;1984;-44
2023/01/07 04:32:14;;;;;;;;;;;21.30;39.90;;;;;;475557;249;1719;-44
2023/01/07 04:34:15;;;;;;;;;;;21.30;40.00;;;;;;475593;249;2203;-44
2023/01/07 04:36:16;;;;;;;;;;;21.30;40.00;;;;;;475558;249;1718;-44
2023/01/07 04:38:18;;;;;;;;;;;21.30;40.00;;;;;;475673;249;2032;-44
2023/01/07 04:40:19;;;;;;;;;;;21.30;40.00;;;;;;475590;249;2087;-44
2023/01/07 04:42:20;;;;;;;;;;;21.20;39.90;;;;;;475655;249;1711;-45
2023/01/07 04:44:22;;;;;;;;;;;21.30;40.00;;;;;;475632;249;2621;-45
2023/01/07 04:46:24;;;;;;;;;;;21.20;40.00;;;;;;475613;249;1898;-44
2023/01/07 04:48:24;;;;;;;;;;;21.20;40.00;;;;;;475561;249;1843;-44
2023/01/07 04:50:25;;;;;;;;;;;21.20;40.10;;;;;;475596;249;2164;-44
2023/01/07 04:52:27;;;;;;;;;;;21.30;40.10;;;;;;475548;249;2055;-44
2023/01/07 04:54:28;;;;;;;;;;;21.20;40.10;;;;;;475657;249;2000;-44
2023/01/07 04:56:29;;;;;;;;;;;21.20;40.10;;;;;;475622;249;2157;-44
2023/01/07 04:58:31;;;;;;;;;;;21.20;40.10;;;;;;475563;249;2053;-44
2023/01/07 05:00:32;;;;;;;;;;;21.20;40.10;;;;;;475556;249;1821;-44
2023/01/07 05:02:33;;;;;;;;;;;21.20;40.10;;;;;;475591;249;1765;-44
2023/01/07 05:04:35;;;;;;;;;;;21.20;40.20;;;;;;475565;249;1821;-44
2023/01/07 05:06:36;;;;;;;;;;;21.10;40.10;;;;;;475590;249;1717;-44
2023/01/07 05:08:37;;;;;;;;;;;21.20;40.20;;;;;;475620;249;2199;-44
2023/01/07 05:10:39;;;;;;;;;;;21.20;40.20;;;;;;475694;249;1921;-44
2023/01/07 05:12:40;;;;;;;;;;;21.20;40.20;;;;;;475762;249;2157;-44
2023/01/07 05:14:41;;;;;;;;;;;21.20;40.20;;;;;;475734;249;1893;-44
2023/01/07 05:16:43;;;;;;;;;;;21.20;40.20;;;;;;475674;249;2110;-45
2023/01/07 05:18:44;;;;;;;;;;;21.20;40.20;;;;;;475647;249;2152;-45
2023/01/07 05:20:45;;;;;;;;;;;21.40;39.80;;;;;;475549;249;2117;-44
2023/01/07 05:22:47;;;;;;;;;;;21.60;39.30;;;;;;475529;249;1704;-44
2023/01/07 05:24:48;;;;;;;;;;;21.90;39.00;;;;;;475520;249;1704;-45
2023/01/07 05:26:49;;;;;;;;;;;22.00;38.70;;;;;;475502;249;2189;-44
2023/01/07 05:28:51;;;;;;;;;;;22.10;38.40;;;;;;475589;249;1996;-45
2023/01/07 05:30:52;;;;;;;;;;;22.20;38.20;;;;;;475555;249;1868;-45
2023/01/07 05:32:53;;;;;;;;;;;22.30;38.00;;;;;;475551;249;2191;-45
2023/01/07 05:34:55;;;;;;;;;;;22.40;37.90;;;;;;475631;249;2203;-44
2023/01/07 05:36:56;;;;;;;;;;;22.50;37.80;;;;;;475418;249;1704;-45
2023/01/07 05:38:57;;;;;;;;;;;22.50;37.60;;;;;;475699;249;2162;-44
2023/01/07 05:40:59;;;;;;;;;;;22.60;37.60;;;;;;475720;249;2145;-44
2023/01/07 05:43:00;;;;;;;;;;;22.60;37.40;;;;;;475484;249;1972;-45
2023/01/07 05:45:01;;;;;;;;;;;22.70;37.40;;;;;;475671;249;1937;-44
2023/01/07 05:47:03;;;;;;;;;;;22.70;37.30;;;;;;475520;249;1904;-44
2023/01/07 05:49:04;;;;;;;;;;;22.80;37.20;;;;;;475599;249;1967;-45
2023/01/07 05:51:05;;;;;;;;;;;22.80;37.20;;;;;;475631;249;1877;-45
2023/01/07 05:53:07;;;;;;;;;;;22.90;37.10;;;;;;475552;249;2251;-45
2023/01/07 05:55:08;;;;;;;;;;;22.90;37.00;;;;;;475578;249;1941;-45
2023/01/07 05:57:10;;;;;;;;;;;22.90;37.00;;;;;;475597;249;2288;-44
2023/01/07 05:59:10;;;;;;;;;;;23.00;36.90;;;;;;475608;249;2138;-45
2023/01/07 06:01:12;;;;;;;;;;;23.00;36.90;;;;;;475652;249;2326;-44
2023/01/07 06:03:13;;;;;;;;;;;23.00;36.80;;;;;;475654;249;1701;-44
2023/01/07 06:05:14;;;;;;;;;;;23.10;36.80;;;;;;475679;249;2276;-44
2023/01/07 06:07:16;;;;;;;;;;;23.10;36.70;;;;;;475603;249;1935;-44
2023/01/07 06:09:17;;;;;;;;;;;23.10;36.70;;;;;;475627;249;2196;-45
2023/01/07 06:11:18;;;;;;;;;;;23.10;36.70;;;;;;475702;249;1769;-45
2023/01/07 06:13:20;;;;;;;;;;;23.20;36.70;;;;;;475611;249;2212;-45
2023/01/07 06:15:21;;;;;;;;;;;23.20;36.70;;;;;;475635;249;2170;-45
2023/01/07 06:17:22;;;;;;;;;;;23.20;36.60;;;;;;475439;249;1822;-45
2023/01/07 06:19:25;;;;;;;;;;;23.20;36.50;;;;;;475620;249;1893;-44
2023/01/07 06:21:25;;;;;;;;;;;23.20;36.50;;;;;;475423;250;2316;-45
2023/01/07 06:23:26;;;;;;;;;;;23.30;36.50;;;;;;475568;249;1775;-44
2023/01/07 06:25:28;;;;;;;;;;;23.30;36.50;;;;;;475663;249;1900;-44
2023/01/07 06:27:29;;;;;;;;;;;23.30;36.50;;;;;;475517;249;1829;-45
2023/01/07 06:29:31;;;;;;;;;;;23.30;36.40;;;;;;475629;249;1688;-45
2023/01/07 06:31:32;;;;;;;;;;;23.40;36.40;;;;;;475384;249;1739;-45
2023/01/07 06:33:33;;;;;;;;;;;23.30;36.40;;;;;;475562;249;2230;-45
2023/01/07 06:35:35;;;;;;;;;;;23.40;36.40;;;;;;475608;249;1854;-44
2023/01/07 06:37:36;;;;;;;;;;;23.40;36.40;;;;;;475530;249;1925;-44
2023/01/07 06:39:37;;;;;;;;;;;23.40;36.40;;;;;;475598;249;2106;-45
2023/01/07 06:41:39;;;;;;;;;;;23.40;36.30;;;;;;475584;249;1906;-45
2023/01/07 06:43:40;;;;;;;;;;;23.40;36.30;;;;;;475613;249;1842;-45
2023/01/07 06:45:41;;;;;;;;;;;23.50;36.30;;;;;;475617;249;2191;-45
2023/01/07 06:47:44;;;;;;;;;;;23.40;36.30;;;;;;475557;249;1999;-45
2023/01/07 06:49:44;;;;;;;;;;;23.50;36.30;;;;;;475576;250;2998;-44
2023/01/07 06:51:45;;;;;;;;;;;23.50;36.20;;;;;;475582;249;2416;-45
2023/01/07 06:53:47;;;;;;;;;;;23.50;36.30;;;;;;475688;249;2200;-44
2023/01/07 06:55:48;;;;;;;;;;;23.50;36.20;;;;;;475692;249;1967;-45
2023/01/07 06:57:49;;;;;;;;;;;23.50;36.20;;;;;;475646;249;2129;-44
2023/01/07 06:59:51;;;;;;;;;;;23.50;36.20;;;;;;475681;249;1987;-45
2023/01/07 07:01:52;;;;;;;;;;;23.50;36.20;;;;;;475450;249;1831;-45
2023/01/07 07:03:53;;;;;;;;;;;23.50;36.10;;;;;;475730;249;2092;-45
2023/01/07 07:05:55;;;;;;;;;;;23.60;36.20;;;;;;475598;249;1708;-45
2023/01/07 07:07:56;;;;;;;;;;;23.60;36.10;;;;;;475558;249;1759;-45
2023/01/07 07:09:57;;;;;;;;;;;23.60;36.10;;;;;;475626;249;1766;-45
2023/01/07 07:11:59;;;;;;;;;;;23.60;36.10;;;;;;475501;249;1730;-44
2023/01/07 07:14:00;;;;;;;;;;;23.60;36.10;;;;;;475602;249;2161;-45
2023/01/07 07:16:01;;;;;;;;;;;23.60;36.10;;;;;;475512;249;2280;-45
2023/01/07 07:18:03;;;;;;;;;;;23.50;36.10;;;;;;475655;249;1875;-44
2023/01/07 07:20:04;;;;;;;;;;;23.50;36.20;;;;;;475678;249;1786;-44
2023/01/07 07:22:05;;;;;;;;;;;23.40;36.40;;;;;;475667;249;1924;-44
2023/01/07 07:24:07;;;;;;;;;;;23.10;36.90;;;;;;475593;249;1744;-45
2023/01/07 07:26:08;;;;;;;;;;;22.90;37.30;;;;;;475665;249;1940;-44
2023/01/07 07:28:09;;;;;;;;;;;22.60;37.70;;;;;;475620;249;1734;-45
2023/01/07 07:30:11;;;;;;;;;;;22.40;38.10;;;;;;475613;249;2264;-44
2023/01/07 07:32:12;;;;;;;;;;;22.30;38.50;;;;;;475605;249;1925;-44
2023/01/07 07:34:13;;;;;;;;;;;22.10;38.70;;;;;;475598;249;2357;-44
2023/01/07 07:36:15;;;;;;;;;;;22.00;38.90;;;;;;475629;249;1949;-45
2023/01/07 07:38:17;;;;;;;;;;;21.90;39.20;;;;;;475687;249;1699;-44
2023/01/07 07:40:18;;;;;;;;;;;21.90;39.30;;;;;;475571;249;2833;-44
2023/01/07 07:42:19;;;;;;;;;;;21.80;39.40;;;;;;475632;249;2021;-44
2023/01/07 07:44:20;;;;;;;;;;;21.80;39.50;;;;;;475629;249;2226;-44
2023/01/07 07:46:22;;;;;;;;;;;21.70;39.50;;;;;;475640;249;1932;-44
2023/01/07 07:48:23;;;;;;;;;;;21.70;39.60;;;;;;475574;249;1970;-44
2023/01/07 07:50:24;;;;;;;;;;;21.60;39.60;;;;;;475619;249;1897;-44
2023/01/07 07:52:26;;;;;;;;;;;21.60;39.80;;;;;;475652;249;1941;-45
2023/01/07 07:54:27;;;;;;;;;;;21.50;39.80;;;;;;475660;249;2168;-44
2023/01/07 07:56:28;;;;;;;;;;;21.50;39.90;;;;;;475721;249;2116;-44
2023/01/07 07:58:30;;;;;;;;;;;21.40;40.00;;;;;;475636;249;2383;-44
2023/01/07 08:00:31;;;;;;;;;;;21.40;40.10;;;;;;475655;249;1685;-44
2023/01/07 08:02:32;;;;;;;;;;;21.40;40.10;;;;;;475644;249;1803;-44
2023/01/07 08:04:34;;;;;;;;;;;21.40;40.10;;;;;;475663;249;1745;-44
2023/01/07 08:06:35;;;;;;;;;;;21.30;40.20;;;;;;475624;249;2112;-44
2023/01/07 08:08:36;;;;;;;;;;;21.40;40.20;;;;;;475645;249;1831;-44
2023/01/07 08:10:38;;;;;;;;;;;21.40;40.30;;;;;;475606;249;2151;-44
2023/01/07 08:12:39;;;;;;;;;;;21.30;40.20;;;;;;475580;249;2125;-45
2023/01/07 08:14:40;;;;;;;;;;;21.30;40.30;;;;;;475687;249;2204;-44
2023/01/07 08:16:42;;;;;;;;;;;21.20;40.40;;;;;;475638;249;1659;-44
2023/01/07 08:18:43;;;;;;;;;;;21.30;40.40;;;;;;475609;249;2120;-44
2023/01/07 08:20:44;;;;;;;;;;;21.20;40.40;;;;;;475640;249;1678;-44
2023/01/07 08:22:46;;;;;;;;;;;21.20;40.50;;;;;;475599;249;1719;-44
2023/01/07 08:24:47;;;;;;;;;;;21.20;40.50;;;;;;475638;249;1862;-44
2023/01/07 08:26:49;;;;;;;;;;;21.20;40.50;;;;;;475696;249;1714;-44
2023/01/07 08:28:50;;;;;;;;;;;21.10;40.50;;;;;;475568;249;2322;-44
2023/01/07 08:30:51;;;;;;;;;;;21.10;40.60;;;;;;475697;249;2346;-44
2023/01/07 08:32:53;;;;;;;;;;;21.20;40.60;;;;;;475591;249;1857;-44
2023/01/07 08:34:54;;;;;;;;;;;21.40;40.20;;;;;;475734;249;2164;-44
2023/01/07 08:36:55;;;;;;;;;;;21.60;39.70;;;;;;475557;250;1644;-44
2023/01/07 08:38:56;;;;;;;;;;;21.90;39.30;;;;;;475660;249;1926;-44
2023/01/07 08:40:58;;;;;;;;;;;22.00;38.90;;;;;;475652;249;1944;-45
2023/01/07 08:42:59;;;;;;;;;;;22.20;38.60;;;;;;475677;249;2103;-45
2023/01/07 08:45:00;;;;;;;;;;;22.30;38.40;;;;;;475688;249;1814;-44
2023/01/07 08:47:02;;;;;;;;;;;22.40;38.20;;;;;;475683;249;2204;-45
2023/01/07 08:49:03;;;;;;;;;;;22.50;38.00;;;;;;475608;249;1675;-45
2023/01/07 08:51:04;;;;;;;;;;;22.50;37.90;;;;;;475688;249;1808;-44
2023/01/07 08:53:06;;;;;;;;;;;22.60;37.70;;;;;;475566;249;2180;-45
2023/01/07 08:55:07;;;;;;;;;;;22.70;37.70;;;;;;475707;249;2200;-45
2023/01/07 08:57:08;;;;;;;;;;;22.70;37.50;;;;;;475591;249;1848;-44
2023/01/07 08:59:10;;;;;;;;;;;22.80;37.50;;;;;;475536;249;1746;-44
2023/01/07 09:01:11;;;;;;;;;;;22.80;37.40;;;;;;475676;249;1694;-45
2023/01/07 09:03:12;;;;;;;;;;;22.90;37.30;;;;;;475579;249;1988;-45
2023/01/07 09:05:14;;;;;;;;;;;22.90;37.20;;;;;;475565;249;2105;-45
2023/01/07 09:07:15;;;;;;;;;;;23.00;37.10;;;;;;475507;249;1865;-45
2023/01/07 09:09:16;;;;;;;;;;;23.00;37.00;;;;;;475597;249;2140;-45
2023/01/07 09:11:18;;;;;;;;;;;23.00;37.00;;;;;;475633;249;2157;-45
2023/01/07 09:13:19;;;;;;;;;;;23.10;36.90;;;;;;475653;249;1995;-45
2023/01/07 09:15:20;;;;;;;;;;;23.10;36.90;;;;;;475576;249;2307;-45
2023/01/07 09:17:22;;;;;;;;;;;23.10;36.80;;;;;;475608;249;2079;-45
2023/01/07 09:19:23;;;;;;;;;;;23.20;36.80;;;;;;475640;249;1969;-45
2023/01/07 09:21:24;;;;;;;;;;;23.20;36.70;;;;;;475617;249;1777;-45
2023/01/07 09:23:26;;;;;;;;;;;23.20;36.70;;;;;;475583;249;1799;-45
2023/01/07 09:25:27;;;;;;;;;;;23.30;36.70;;;;;;475586;249;2161;-44
2023/01/07 09:27:28;;;;;;;;;;;23.30;36.70;;;;;;475623;249;1916;-44
2023/01/07 09:29:30;;;;;;;;;;;23.30;36.60;;;;;;475536;249;1900;-45
2023/01/07 09:31:31;;;;;;;;;;;23.30;36.50;;;;;;475620;249;1764;-44
2023/01/07 09:33:32;;;;;;;;;;;23.30;36.50;;;;;;475653;249;2405;-45
2023/01/07 09:35:34;;;;;;;;;;;23.40;36.60;;;;;;475620;249;2172;-44
2023/01/07 09:37:35;;;;;;;;;;;23.40;36.50;;;;;;475601;249;1783;-45
2023/01/07 09:39:36;;;;;;;;;;;23.40;36.50;;;;;;475371;249;2449;-45
2023/01/07 09:41:38;;;;;;;;;;;23.40;36.50;;;;;;474299;249;2120;-44
2023/01/07 09:43:39;;;;;;;;;;;23.40;36.40;;;;;;475611;249;2029;-45
2023/01/07 09:45:40;;;;;;;;;;;23.40;36.30;;;;;;475594;249;1884;-44
2023/01/07 09:47:41;;;;;;;;;;;23.50;36.40;;;;;;475648;249;1633;-45
2023/01/07 09:49:43;;;;;;;;;;;23.50;36.40;;;;;;475636;249;1792;-45
2023/01/07 09:51:44;;;;;;;;;;;23.50;36.30;;;;;;475597;249;2528;-45
2023/01/07 09:53:45;;;;;;;;;;;23.50;36.30;;;;;;475602;249;1875;-44
2023/01/07 09:55:47;;;;;;;;;;;23.50;36.30;;;;;;475649;249;2314;-45
2023/01/07 09:57:48;;;;;;;;;;;23.50;36.20;;;;;;475636;249;1973;-44
2023/01/07 09:59:49;;;;;;;;;;;23.50;36.40;;;;;;475605;249;1957;-45
2023/01/07 10:01:51;;;;;;;;;;;23.50;36.30;;;;;;475504;249;1968;-45
2023/01/07 10:03:52;;;;;;;;;;;23.20;36.70;;;;;;475628;249;1887;-44
2023/01/07 10:05:53;;;;;;;;;;;23.00;37.20;;;;;;475689;249;2028;-44
2023/01/07 10:07:55;;;;;;;;;;;22.70;37.70;;;;;;475548;249;2358;-45
2023/01/07 10:09:56;;;;;;;;;;;22.50;38.00;;;;;;475625;249;1944;-44
2023/01/07 10:11:59;;;;;;;;;;;22.30;38.40;;;;;;475503;249;2120;-44
2023/01/07 10:13:59;;;;;;;;;;;22.20;38.60;;;;;;475471;250;1853;-44
2023/01/07 10:16:00;;;;;;;;;;;22.10;38.80;;;;;;475522;249;2191;-45
2023/01/07 10:18:03;;;;;;;;;;;22.10;38.90;;;;;;475573;249;1787;-44
2023/01/07 10:20:03;;;;;;;;;;;22.00;38.90;;;;;;475519;250;1753;-44
2023/01/07 10:22:04;;;;;;;;;;;22.00;39.10;;;;;;475551;249;1689;-44
2023/01/07 10:24:05;;;;;;;;;;;21.80;39.20;;;;;;475663;249;2149;-44
2023/01/07 10:26:07;;;;;;;;;;;21.80;39.40;;;;;;475601;249;2063;-45
2023/01/07 10:28:08;;;;;;;;;;;21.80;39.40;;;;;;475622;249;2106;-44
2023/01/07 10:30:10;;;;;;;;;;;21.70;39.50;;;;;;475661;249;1739;-44
2023/01/07 10:32:11;;;;;;;;;;;21.70;39.60;;;;;;475607;249;2024;-45
2023/01/07 10:34:12;;;;;;;;;;;21.70;39.60;;;;;;475695;249;1720;-44
2023/01/07 10:36:13;;;;;;;;;;;21.60;39.60;;;;;;475432;249;2187;-44
2023/01/07 10:38:15;;;;;;;;;;;21.60;39.70;;;;;;475679;249;1715;-44
2023/01/07 10:40:16;;;;;;;;;;;21.60;39.70;;;;;;475655;249;1945;-45
2023/01/07 10:42:18;;;;;;;;;;;21.60;39.80;;;;;;475459;249;1869;-44
2023/01/07 10:44:19;;;;;;;;;;;21.50;39.80;;;;;;475678;249;1680;-44
2023/01/07 10:46:20;;;;;;;;;;;21.50;40.00;;;;;;475473;249;1923;-44
2023/01/07 10:48:22;;;;;;;;;;;21.50;40.00;;;;;;475608;249;1825;-45
2023/01/07 10:50:23;;;;;;;;;;;21.40;40.00;;;;;;475674;249;1693;-44
2023/01/07 10:52:25;;;;;;;;;;;21.50;40.00;;;;;;475488;249;2024;-45
2023/01/07 10:54:25;;;;;;;;;;;21.50;40.00;;;;;;475561;249;2012;-45
2023/01/07 10:56:27;;;;;;;;;;;21.50;40.00;;;;;;475653;249;2187;-44
2023/01/07 10:58:28;;;;;;;;;;;21.40;40.00;;;;;;475635;249;2011;-44
2023/01/07 11:00:29;;;;;;;;;;;21.40;40.00;;;;;;475585;249;2104;-45
2023/01/07 11:02:31;;;;;;;;;;;21.40;40.00;;;;;;475629;249;1971;-44
2023/01/07 11:04:32;;;;;;;;;;;21.50;40.00;;;;;;475543;249;2291;-44
2023/01/07 11:06:33;;;;;;;;;;;21.40;40.00;;;;;;475644;249;2230;-45
2023/01/07 11:08:35;;;;;;;;;;;21.40;40.10;;;;;;475583;249;1906;-44
2023/01/07 11:10:36;;;;;;;;;;;21.40;40.00;;;;;;475637;249;1859;-45
2023/01/07 11:12:37;;;;;;;;;;;21.40;40.00;;;;;;475668;249;1801;-44
2023/01/07 11:14:39;;;;;;;;;;;21.40;40.00;;;;;;475605;249;1800;-45
2023/01/07 11:16:42;;;;;;;;;;;21.40;40.00;;;;;;475619;249;2180;-45
2023/01/07 11:18:41;;;;;;;;;;;21.40;39.90;;;;;;475558;250;1725;-44
2023/01/07 11:20:43;;;;;;;;;;;21.40;40.00;;;;;;475576;249;1745;-45
2023/01/07 11:22:44;;;;;;;;;;;21.40;40.00;;;;;;475639;249;1692;-44
2023/01/07 11:24:45;;;;;;;;;;;21.40;39.90;;;;;;475601;249;1739;-44
2023/01/07 11:26:47;;;;;;;;;;;21.50;39.80;;;;;;475712;249;1980;-44
2023/01/07 11:28:48;;;;;;;;;;;21.50;39.80;;;;;;475635;249;2204;-44
2023/01/07 11:30:49;;;;;;;;;;;21.60;39.80;;;;;;475581;249;2548;-44
2023/01/07 11:32:51;;;;;;;;;;;21.60;39.60;;;;;;475593;249;1604;-44
2023/01/07 11:34:52;;;;;;;;;;;21.70;39.50;;;;;;475705;249;2192;-44
2023/01/07 11:36:53;;;;;;;;;;;21.70;39.40;;;;;;475600;249;1825;-44
2023/01/07 11:38:55;;;;;;;;;;;21.80;39.30;;;;;;475693;249;1915;-44
2023/01/07 11:40:56;;;;;;;;;;;21.80;39.20;;;;;;475600;249;2146;-44
2023/01/07 11:42:57;;;;;;;;;;;21.90;39.20;;;;;;475605;249;1802;-44
2023/01/07 11:44:59;;;;;;;;;;;21.90;39.10;;;;;;475639;249;1956;-44
2023/01/07 11:47:00;;;;;;;;;;;21.90;38.90;;;;;;475639;249;1712;-45
2023/01/07 11:49:01;;;;;;;;;;;22.00;39.00;;;;;;475678;249;1743;-44
2023/01/07 11:51:04;;;;;;;;;;;22.00;38.90;;;;;;475725;249;2111;-44
2023/01/07 11:53:04;;;;;;;;;;;22.00;38.90;;;;;;475605;250;2225;-45
2023/01/07 11:55:06;;;;;;;;;;;22.00;38.90;;;;;;475620;249;2192;-44
2023/01/07 11:57:07;;;;;;;;;;;22.00;38.80;;;;;;475712;249;2111;-44
2023/01/07 11:59:08;;;;;;;;;;;22.00;38.80;;;;;;475595;249;1845;-45